Orbital elements of COSMOS 970 DEB
| Launched | 20 December 1977 |
| Flight ended | – |
| Launch site | Tyuratam Missile and Space Center, Kazakhstan (Also known as Baikonur Cosmodrome) |
| Owner | Commonwealth of Independent States (former USSR) |
| NORAD ID | 10563 |
| Date fetched |
Epoch osculation |
Inc. [°] |
Ecc. | RA asc node [hr] |
Arg Peri. [°] |
Mean anom [°] |
Mean motion [rev/day] |
Abs. mag |
| Date fetched |
Epoch osculation |
Inc. [°] |
Ecc. | RA asc node [hr] |
Arg Peri. [°] |
Mean anom [°] |
Mean motion [rev/day] |
Abs. mag |
| 2026 May 03 17:57 | 2026 Apr 30 09:29:42 | 65.8433 | 0.01080 | 7.8869 | 318.2596 | 41.0272 | 13.92709 | – |
| 2026 May 02 17:57 | 2026 Apr 30 09:29:42 | 65.8433 | 0.01080 | 7.8869 | 318.2596 | 41.0272 | 13.92709 | – |
| 2026 May 01 17:56 | 2026 Apr 30 09:29:42 | 65.8433 | 0.01080 | 7.8869 | 318.2596 | 41.0272 | 13.92709 | – |
| 2026 Apr 30 17:56 | 2026 Apr 30 09:29:42 | 65.8433 | 0.01080 | 7.8869 | 318.2596 | 41.0272 | 13.92709 | – |
| 2026 Apr 29 17:57 | 2026 Apr 24 10:26:58 | 65.8434 | 0.01076 | 8.8981 | 321.1176 | 41.0272 | 13.92709 | – |
| 2026 Apr 28 17:56 | 2026 Apr 24 10:26:58 | 65.8434 | 0.01076 | 8.8981 | 321.1176 | 41.0272 | 13.92709 | – |
| 2026 Apr 27 17:58 | 2026 Apr 24 10:26:58 | 65.8434 | 0.01076 | 8.8981 | 321.1176 | 41.0272 | 13.92709 | – |
| 2026 Apr 26 17:58 | 2026 Apr 24 10:26:58 | 65.8434 | 0.01076 | 8.8981 | 321.1176 | 41.0272 | 13.92709 | – |
| 2026 Apr 25 17:58 | 2026 Apr 24 10:26:58 | 65.8434 | 0.01076 | 8.8981 | 321.1176 | 41.0272 | 13.92709 | – |
| 2026 Apr 24 17:59 | 2026 Apr 24 10:26:58 | 65.8434 | 0.01076 | 8.8981 | 321.1176 | 41.0272 | 13.92709 | – |
| 2026 Apr 23 17:57 | 2026 Apr 19 04:38:14 | 65.8440 | 0.01071 | 9.7874 | 323.6615 | 41.0272 | 13.92709 | – |
| 2026 Apr 22 17:57 | 2026 Apr 19 04:38:14 | 65.8440 | 0.01071 | 9.7874 | 323.6615 | 41.0272 | 13.92709 | – |
| 2026 Apr 21 17:57 | 2026 Apr 19 04:38:14 | 65.8440 | 0.01071 | 9.7874 | 323.6615 | 41.0272 | 13.92709 | – |
| 2026 Apr 20 17:57 | 2026 Apr 19 04:38:14 | 65.8440 | 0.01071 | 9.7874 | 323.6615 | 41.0272 | 13.92709 | – |
| 2026 Apr 19 17:58 | 2026 Apr 19 04:38:14 | 65.8440 | 0.01071 | 9.7874 | 323.6615 | 41.0272 | 13.92709 | – |
| 2026 Apr 18 17:56 | 2026 Apr 13 05:35:22 | 65.8446 | 0.01064 | 10.7985 | 326.6488 | 41.0272 | 13.92709 | – |
| 2026 Apr 16 17:57 | 2026 Apr 13 05:35:22 | 65.8446 | 0.01064 | 10.7985 | 326.6488 | 41.0272 | 13.92709 | – |
| 2026 Apr 14 17:57 | 2026 Apr 13 05:35:22 | 65.8446 | 0.01064 | 10.7985 | 326.6488 | 41.0272 | 13.92709 | – |
| 2026 Apr 13 17:57 | 2026 Apr 13 05:35:22 | 65.8446 | 0.01064 | 10.7985 | 326.6488 | 41.0272 | 13.92709 | – |
| 2026 Apr 12 17:57 | 2026 Apr 08 06:40:11 | 65.8452 | 0.01059 | 11.6390 | 329.1352 | 41.0272 | 13.92709 | – |
| 2026 Apr 11 17:57 | 2026 Apr 08 06:40:11 | 65.8452 | 0.01059 | 11.6390 | 329.1352 | 41.0272 | 13.92709 | – |
| 2026 Apr 10 17:58 | 2026 Apr 08 06:40:11 | 65.8452 | 0.01059 | 11.6390 | 329.1352 | 41.0272 | 13.92709 | – |
| 2026 Apr 09 18:01 | 2026 Apr 08 06:40:11 | 65.8452 | 0.01059 | 11.6390 | 329.1352 | 41.0272 | 13.92709 | – |
| 2026 Apr 08 17:57 | 2026 Apr 08 06:40:11 | 65.8452 | 0.01059 | 11.6390 | 329.1352 | 41.0272 | 13.92709 | – |
| 2026 Apr 07 17:57 | 2026 Apr 01 09:12:53 | 65.8454 | 0.01051 | 12.8084 | 332.7276 | 41.0272 | 13.92709 | – |
| 2026 Apr 06 17:57 | 2026 Apr 01 09:12:53 | 65.8454 | 0.01051 | 12.8084 | 332.7276 | 41.0272 | 13.92709 | – |